Time;durP1;ratioP1;P1;durP2;ratioP2;P2;SDS_P1;SDS_P2;PMS_P1;PMS_P2;Temp;Humidity;BMP_temperature;BMP_pressure;BME280_temperature;BME280_humidity;BME280_pressure;Samples;Min_cycle;Max_cycle;Signal;HPM_P1;HPM_P2
2022/11/01 00:02:51;;;;;;;12.32;5.30;;;13.80;99.90;;;;;;6224752;28;20053;-83
2022/11/01 00:05:52;;;;;;;12.20;5.07;;;13.80;99.90;;;;;;6224392;28;20057;-83
2022/11/01 00:08:55;;;;;;;16.67;5.20;;;13.90;99.90;;;;;;6225037;28;20130;-84
2022/11/01 00:11:58;;;;;;;22.45;7.30;;;13.90;99.90;;;;;;6223869;28;20062;-83
2022/11/01 00:15:00;;;;;;;15.18;7.72;;;14.00;99.90;;;;;;6224973;28;20383;-83
2022/11/01 00:18:01;;;;;;;11.35;7.25;;;14.10;99.90;;;;;;6224430;28;20388;-83
2022/11/01 00:21:03;;;;;;;13.82;7.82;;;14.20;99.90;;;;;;6223717;28;20046;-82
2022/11/01 00:24:07;;;;;;;15.43;8.75;;;14.30;99.90;;;;;;6224348;28;20060;-84
2022/11/01 00:27:08;;;;;;;20.20;8.52;;;14.40;99.90;;;;;;6223802;28;20053;-83
2022/11/01 00:30:11;;;;;;;11.75;6.63;;;14.50;99.90;;;;;;6229582;28;20057;-84
2022/11/01 00:33:12;;;;;;;15.90;7.70;;;14.60;99.90;;;;;;6229921;28;20412;-84
2022/11/01 00:36:14;;;;;;;15.50;8.00;;;14.70;99.90;;;;;;6231147;28;20526;-84
2022/11/01 00:39:17;;;;;;;10.32;6.00;;;14.70;99.90;;;;;;6230370;28;20403;-83
2022/11/01 00:42:19;;;;;;;10.90;6.90;;;14.80;99.90;;;;;;6228518;28;20057;-84
2022/11/01 00:45:21;;;;;;;14.82;6.28;;;14.80;99.90;;;;;;6228933;28;20045;-84
2022/11/01 00:48:23;;;;;;;14.38;6.05;;;14.80;99.90;;;;;;6228500;28;20045;-84
2022/11/01 00:51:25;;;;;;;18.40;6.03;;;14.70;99.90;;;;;;6230339;28;20042;-84
2022/11/01 00:54:28;;;;;;;14.15;5.45;;;14.60;99.90;;;;;;6229792;28;20050;-83
2022/11/01 00:57:29;;;;;;;10.90;5.93;;;14.60;99.90;;;;;;6229221;28;20056;-84
2022/11/01 01:00:31;;;;;;;14.35;6.15;;;14.50;99.90;;;;;;6231019;28;20053;-83
2022/11/01 01:03:33;;;;;;;13.00;5.82;;;14.40;99.90;;;;;;6229662;28;20046;-84
2022/11/01 01:06:34;;;;;;;19.88;6.75;;;14.30;99.90;;;;;;6230904;28;20049;-82
2022/11/01 01:09:38;;;;;;;14.43;7.60;;;14.30;99.90;;;;;;6230001;28;20046;-84
2022/11/01 01:12:39;;;;;;;18.52;7.03;;;14.30;99.90;;;;;;6229074;28;20395;-83
2022/11/01 01:15:41;;;;;;;25.75;7.45;;;14.30;99.90;;;;;;6228236;28;20050;-83
2022/11/01 01:18:43;;;;;;;14.48;6.70;;;14.30;99.90;;;;;;6228280;28;20049;-83
2022/11/01 01:21:44;;;;;;;17.90;7.03;;;14.30;99.90;;;;;;6227940;28;20051;-82
2022/11/01 01:24:47;;;;;;;16.58;6.68;;;14.40;99.90;;;;;;6230089;28;20049;-83
2022/11/01 01:27:49;;;;;;;12.77;6.35;;;14.50;99.90;;;;;;6235170;28;20057;-82
2022/11/01 01:30:51;;;;;;;15.65;6.45;;;14.50;99.90;;;;;;6250088;28;20030;-82
2022/11/01 01:33:53;;;;;;;18.33;6.72;;;14.40;99.90;;;;;;6243573;28;20050;-83
2022/11/01 01:36:54;;;;;;;23.02;7.03;;;14.40;99.90;;;;;;6237926;28;20042;-84
2022/11/01 01:39:58;;;;;;;10.30;6.35;;;14.50;99.90;;;;;;6234727;28;20054;-84
2022/11/01 01:43:00;;;;;;;14.30;6.22;;;14.50;99.90;;;;;;6210813;28;20046;-83
2022/11/01 01:46:01;;;;;;;16.30;6.32;;;14.60;99.90;;;;;;6208292;28;20061;-84
2022/11/01 01:49:03;;;;;;;20.42;6.88;;;14.70;99.90;;;;;;6202133;28;20046;-83
2022/11/01 01:52:05;;;;;;;11.50;6.45;;;14.80;99.90;;;;;;6200130;28;20050;-82
2022/11/01 01:55:10;;;;;;;12.60;6.68;;;14.80;99.90;;;;;;6200113;28;20058;-82
2022/11/01 01:58:14;;;;;;;34.33;7.70;;;14.90;99.90;;;;;;6200551;28;20057;-83
2022/11/01 02:01:16;;;;;;;18.23;7.85;;;14.90;99.90;;;;;;6199776;28;20058;-83
2022/11/01 02:04:22;;;;;;;16.85;7.82;;;14.90;99.90;;;;;;6200684;28;20057;-83
2022/11/01 02:07:25;;;;;;;20.83;6.82;;;14.80;99.90;;;;;;6200064;28;20050;-83
2022/11/01 02:10:29;;;;;;;14.20;5.60;;;14.80;99.90;;;;;;6200009;28;20436;-83
2022/11/01 02:13:32;;;;;;;19.45;6.32;;;14.80;99.90;;;;;;6199685;28;20435;-82
2022/11/01 02:16:43;;;;;;;11.48;6.13;;;14.80;99.90;;;;;;6199830;28;20056;-82
2022/11/01 02:20:04;;;;;;;18.02;6.72;;;14.70;99.90;;;;;;6199723;28;20053;-83
2022/11/01 02:23:45;;;;;;;16.13;6.35;;;14.70;99.90;;;;;;6214342;23;20057;-86
2022/11/01 02:27:20;;;;;;;14.90;6.85;;;14.80;99.90;;;;;;6175527;28;20455;-84
2022/11/01 02:30:23;;;;;;;18.70;7.65;;;14.90;99.90;;;;;;6150593;29;20047;-86
2022/11/01 02:33:34;;;;;;;14.48;7.50;;;15.00;99.90;;;;;;6151010;28;20043;-86
2022/11/01 02:36:43;;;;;;;19.58;8.35;;;15.10;99.90;;;;;;6169802;28;20185;-86
2022/11/01 02:39:49;;;;;;;17.63;7.93;;;15.20;99.90;;;;;;6198707;28;20507;-86
2022/11/01 02:42:56;;;;;;;23.73;7.63;;;15.20;99.90;;;;;;6200600;28;20050;-86
2022/11/01 02:46:59;;;;;;;14.48;7.10;;;15.30;99.90;;;;;;6177206;28;20050;-86
2022/11/01 02:49:24;;;;;;;18.90;7.63;;;15.40;99.90;;;;;;6177106;28;20051;-86
2022/11/01 02:52:28;;;;;;;24.10;9.30;;;15.30;99.90;;;;;;6177830;28;20055;-85
2022/11/01 02:55:32;;;;;;;19.40;7.47;;;15.20;99.90;;;;;;6187477;28;20043;-85
2022/11/01 02:58:34;;;;;;;14.77;7.03;;;15.20;99.90;;;;;;6177308;28;20432;-86
2022/11/01 03:01:37;;;;;;;16.98;9.02;;;15.20;99.90;;;;;;6174570;28;20046;-86
2022/11/01 03:04:40;;;;;;;19.25;7.72;;;15.20;99.90;;;;;;6174211;28;20424;-85
2022/11/01 03:07:45;;;;;;;20.23;8.15;;;15.30;99.90;;;;;;6174172;28;20043;-86
2022/11/01 03:10:53;;;;;;;23.25;7.22;;;15.30;99.90;;;;;;6174713;28;20057;-86
2022/11/01 03:14:01;;;;;;;12.43;6.38;;;15.30;99.90;;;;;;6175291;28;20051;-85
2022/11/01 03:17:09;;;;;;;22.50;7.93;;;15.30;99.90;;;;;;6174087;28;20051;-86
2022/11/01 03:20:19;;;;;;;17.55;7.32;;;15.30;99.90;;;;;;6174174;28;20061;-87
2022/11/01 03:23:32;;;;;;;15.60;7.32;;;15.30;99.90;;;;;;6174185;28;20055;-85
2022/11/01 03:26:35;;;;;;;20.13;7.57;;;15.30;99.90;;;;;;6175006;28;20046;-85
2022/11/01 03:29:38;;;;;;;14.90;6.28;;;15.30;99.90;;;;;;6174492;28;20508;-85
2022/11/01 03:32:44;;;;;;;15.27;7.20;;;15.30;99.90;;;;;;6173941;28;20050;-85
2022/11/01 03:35:51;;;;;;;16.15;7.20;;;15.30;99.90;;;;;;6173937;28;20570;-85
2022/11/01 03:38:56;;;;;;;17.65;6.80;;;15.30;99.90;;;;;;6174456;28;20101;-85
2022/11/01 03:42:02;;;;;;;12.68;7.28;;;15.20;99.90;;;;;;6198296;28;20081;-85
2022/11/01 03:45:09;;;;;;;14.55;7.38;;;15.20;99.90;;;;;;6198871;28;20046;-85
2022/11/01 03:48:10;;;;;;;21.25;8.32;;;15.20;99.90;;;;;;6197833;28;20535;-85
2022/11/01 03:51:14;;;;;;;19.85;8.13;;;15.30;99.90;;;;;;6198046;28;20050;-85
2022/11/01 03:54:15;;;;;;;17.50;7.40;;;15.30;99.90;;;;;;6198464;28;20050;-85
2022/11/01 03:57:17;;;;;;;20.83;8.57;;;15.40;99.90;;;;;;6197728;28;20058;-85
2022/11/01 04:00:21;;;;;;;18.92;7.90;;;15.30;99.90;;;;;;6197883;28;20050;-84
2022/11/01 04:03:22;;;;;;;20.23;8.40;;;15.20;99.90;;;;;;6201629;28;20049;-85
2022/11/01 04:06:25;;;;;;;14.43;7.25;;;15.10;99.90;;;;;;6203516;28;20066;-85
2022/11/01 04:09:27;;;;;;;22.15;9.52;;;15.00;99.90;;;;;;6202672;28;20058;-84
2022/11/01 04:12:29;;;;;;;20.48;8.65;;;15.00;99.90;;;;;;6202272;28;20046;-85
2022/11/01 04:22:10;;;;;;;19.20;8.80;;;14.90;99.90;;;;;;6202238;28;20038;-85
2022/11/01 04:25:12;;;;;;;30.40;10.25;;;14.90;99.90;;;;;;6201517;28;20132;-86
2022/11/01 04:28:14;;;;;;;23.77;11.13;;;14.80;99.90;;;;;;6201327;28;20057;-85
2022/11/01 04:31:15;;;;;;;20.48;9.65;;;14.90;99.90;;;;;;6201632;28;20049;-85
2022/11/01 04:34:40;;;;;;;20.55;9.27;;;14.90;99.90;;;;;;6201685;28;20520;-85
2022/11/01 04:37:41;;;;;;;28.27;9.65;;;14.90;99.90;;;;;;6201193;28;20129;-86
2022/11/01 04:40:43;;;;;;;20.27;8.93;;;14.80;99.90;;;;;;6201352;28;20603;-86
2022/11/01 04:43:45;;;;;;;15.80;8.35;;;14.80;99.90;;;;;;6201375;28;20050;-85
2022/11/01 04:46:47;;;;;;;15.40;7.88;;;14.90;99.90;;;;;;6202216;28;20058;-85
2022/11/01 04:49:49;;;;;;;24.60;9.57;;;14.90;99.90;;;;;;6201151;28;20524;-85
2022/11/01 04:52:52;;;;;;;29.08;11.60;;;15.00;99.90;;;;;;6201522;28;20527;-86
2022/11/01 04:55:53;;;;;;;22.38;8.15;;;15.10;99.90;;;;;;6201357;28;20047;-86
2022/11/01 04:58:56;;;;;;;18.25;7.32;;;15.20;99.90;;;;;;6201211;28;20054;-85
2022/11/01 05:01:58;;;;;;;21.80;7.95;;;15.20;99.90;;;;;;6202284;28;20054;-85
2022/11/01 05:05:00;;;;;;;21.42;8.57;;;15.20;99.90;;;;;;6200786;28;20050;-86
2022/11/01 05:08:05;;;;;;;17.85;7.75;;;15.30;99.90;;;;;;6201254;28;20042;-85
2022/11/01 05:11:06;;;;;;;19.52;8.50;;;15.30;99.90;;;;;;6201871;28;20051;-86
2022/11/01 05:14:08;;;;;;;17.63;6.38;;;15.30;99.90;;;;;;6200259;28;20428;-86
2022/11/01 05:17:10;;;;;;;10.55;5.53;;;15.30;99.90;;;;;;6200506;28;20047;-84
2022/11/01 05:20:12;;;;;;;15.32;6.30;;;15.40;99.90;;;;;;6200969;28;20046;-86
2022/11/01 05:23:15;;;;;;;14.40;5.93;;;15.40;99.90;;;;;;6200661;28;20492;-86
2022/11/01 05:26:16;;;;;;;11.35;4.45;;;15.40;99.90;;;;;;6200912;28;20050;-86
2022/11/01 05:29:18;;;;;;;13.73;4.78;;;15.50;99.90;;;;;;6201136;28;20051;-86
2022/11/01 05:32:20;;;;;;;7.97;3.92;;;15.50;99.90;;;;;;6200528;28;20049;-86
2022/11/01 05:35:21;;;;;;;11.55;4.95;;;15.50;99.90;;;;;;6200778;28;20046;-86
2022/11/01 05:38:24;;;;;;;11.02;4.35;;;15.50;99.90;;;;;;6200932;28;20050;-86
2022/11/01 05:41:26;;;;;;;10.57;4.07;;;15.40;99.90;;;;;;6200214;28;20429;-86
2022/11/01 05:44:28;;;;;;;7.15;3.20;;;15.50;99.90;;;;;;6199972;28;20420;-86
2022/11/01 05:47:32;;;;;;;11.45;3.85;;;15.50;99.90;;;;;;6200680;28;20046;-85
2022/11/01 05:50:34;;;;;;;8.10;3.17;;;15.60;99.90;;;;;;6200983;28;20054;-85
2022/11/01 05:53:37;;;;;;;11.75;3.38;;;15.70;99.90;;;;;;6200102;28;20047;-85
2022/11/01 05:56:39;;;;;;;6.65;3.22;;;15.70;99.90;;;;;;6200199;28;20046;-86
2022/11/01 05:59:40;;;;;;;6.82;2.60;;;15.80;99.90;;;;;;6199810;28;20054;-85
2022/11/01 06:02:42;;;;;;;8.27;2.35;;;15.90;99.90;;;;;;6213726;28;20146;-83
2022/11/01 06:05:44;;;;;;;6.05;2.47;;;15.90;99.90;;;;;;6203541;28;20053;-84
2022/11/01 06:08:47;;;;;;;4.68;2.55;;;15.90;99.90;;;;;;6199119;28;20420;-86
2022/11/01 06:11:48;;;;;;;53.40;30.45;;;15.90;99.90;;;;;;6199228;28;20046;-85
2022/11/01 06:14:50;;;;;;;7.70;2.75;;;15.90;99.90;;;;;;6200081;28;20069;-84
2022/11/01 06:17:56;;;;;;;9.13;2.40;;;15.90;99.90;;;;;;6199265;28;20652;-86
2022/11/01 06:20:58;;;;;;;5.38;1.88;;;16.00;99.90;;;;;;6199374;28;20054;-86
2022/11/01 06:24:01;;;;;;;2.78;1.48;;;16.10;99.90;;;;;;6199373;28;20050;-85
2022/11/01 06:27:03;;;;;;;5.85;2.28;;;16.20;99.90;;;;;;6198838;28;20065;-86
2022/11/01 06:30:06;;;;;;;4.80;2.58;;;16.20;99.90;;;;;;6203275;28;20054;-86
2022/11/01 06:33:08;;;;;;;8.13;4.88;;;16.30;99.90;;;;;;6200290;28;20042;-86
2022/11/01 06:36:10;;;;;;;6.47;1.33;;;16.40;99.90;;;;;;6199064;28;20046;-85
2022/11/01 06:39:13;;;;;;;1.67;0.80;;;16.50;99.90;;;;;;6198849;28;20046;-85
2022/11/01 06:42:14;;;;;;;7.13;1.38;;;16.50;99.90;;;;;;6199421;28;20046;-86
2022/11/01 06:45:16;;;;;;;4.07;1.92;;;16.60;99.90;;;;;;6198736;28;20541;-87
2022/11/01 06:48:18;;;;;;;3.70;1.80;;;16.60;99.90;;;;;;6198705;28;20046;-86
2022/11/01 06:51:20;;;;;;;3.97;0.95;;;16.60;99.90;;;;;;6198675;28;20455;-85
2022/11/01 06:54:23;;;;;;;4.38;1.85;;;16.60;99.90;;;;;;6199003;28;20046;-86
2022/11/01 06:57:25;;;;;;;5.35;0.90;;;16.60;99.90;;;;;;6198575;28;20051;-85
2022/11/01 07:00:28;;;;;;;3.72;1.25;;;16.60;99.90;;;;;;6199812;28;20042;-85
2022/11/01 07:03:30;;;;;;;3.92;0.73;;;16.60;99.90;;;;;;6198551;28;20046;-86
2022/11/01 07:06:31;;;;;;;7.28;1.50;;;16.50;99.90;;;;;;6199401;28;20062;-86
2022/11/01 07:09:36;;;;;;;3.63;0.90;;;16.60;99.90;;;;;;6198236;28;20050;-85
2022/11/01 07:12:37;;;;;;;3.90;1.20;;;16.50;99.90;;;;;;6198695;28;20053;-86
2022/11/01 07:15:40;;;;;;;1.50;0.85;;;16.50;99.90;;;;;;6217055;28;20042;-85
2022/11/01 07:18:42;;;;;;;1.02;0.52;;;16.60;99.90;;;;;;6225233;28;20050;-85
2022/11/01 07:21:43;;;;;;;5.93;1.80;;;16.60;99.90;;;;;;6215388;28;20540;-85
2022/11/01 07:24:46;;;;;;;1.98;0.90;;;16.70;99.90;;;;;;6203279;28;20047;-86
2022/11/01 07:27:48;;;;;;;4.53;0.88;;;16.70;99.90;;;;;;6198991;28;20046;-86
2022/11/01 07:30:50;;;;;;;3.33;2.05;;;16.80;99.90;;;;;;6198895;28;20054;-85
2022/11/01 07:33:53;;;;;;;0.35;0.30;;;16.90;99.90;;;;;;6198015;28;20165;-86
2022/11/01 07:36:55;;;;;;;2.35;1.02;;;16.90;99.90;;;;;;6185863;28;20082;-86
2022/11/01 07:39:58;;;;;;;4.05;1.05;;;16.90;99.90;;;;;;6191328;28;20059;-85
2022/11/01 07:43:01;;;;;;;1.75;0.60;;;17.00;99.90;;;;;;6198195;28;20042;-86
2022/11/01 07:46:05;;;;;;;1.20;0.60;;;17.10;99.90;;;;;;6182994;28;20074;-85
2022/11/01 07:49:07;;;;;;;2.70;0.80;;;17.00;99.90;;;;;;6177803;28;20046;-86
2022/11/01 07:52:09;;;;;;;1.65;0.60;;;17.10;99.90;;;;;;6154130;28;20074;-86
2022/11/01 07:55:12;;;;;;;1.42;0.32;;;17.30;99.90;;;;;;6155353;28;20058;-86
2022/11/01 07:58:16;;;;;;;1.05;0.75;;;17.30;99.90;;;;;;6155013;28;20417;-86
2022/11/01 08:01:18;;;;;;;2.00;0.40;;;17.40;99.90;;;;;;6153247;28;20075;-85
2022/11/01 08:04:20;;;;;;;1.40;0.40;;;17.40;99.90;;;;;;6154471;28;20048;-86
2022/11/01 08:07:22;;;;;;;2.10;0.60;;;17.50;99.90;;;;;;6154460;28;20043;-84
2022/11/01 08:10:25;;;;;;;3.45;0.40;;;17.50;99.90;;;;;;6166373;28;20415;-85
2022/11/01 08:13:28;;;;;;;0.93;0.45;;;17.60;99.90;;;;;;6182656;28;20043;-86
2022/11/01 08:16:37;;;;;;;4.65;1.77;;;17.80;99.90;;;;;;6178717;28;20050;-86
2022/11/01 08:19:39;;;;;;;5.07;3.70;;;17.80;99.90;;;;;;6178052;28;20042;-85
2022/11/01 08:22:41;;;;;;;1.45;0.60;;;17.90;99.90;;;;;;6203083;23;20053;-86
2022/11/01 08:25:44;;;;;;;3.58;1.88;;;17.90;99.90;;;;;;6182929;28;20518;-86
2022/11/01 08:28:46;;;;;;;2.95;0.70;;;18.00;99.90;;;;;;6182364;28;20046;-85
2022/11/01 08:31:48;;;;;;;2.88;0.80;;;18.10;99.90;;;;;;6181456;28;20050;-84
2022/11/01 08:34:49;;;;;;;2.20;0.55;;;18.00;99.90;;;;;;6181879;28;20050;-83
2022/11/01 08:37:52;;;;;;;1.98;0.50;;;18.10;99.90;;;;;;6180806;28;20047;-84
2022/11/01 08:40:55;;;;;;;1.92;0.70;;;18.20;99.90;;;;;;6188620;28;20057;-84
2022/11/01 08:43:58;;;;;;;3.13;0.60;;;18.20;99.90;;;;;;6181343;28;20050;-85
2022/11/01 08:47:00;;;;;;;1.45;0.60;;;18.20;99.90;;;;;;6180929;28;20054;-84
2022/11/01 08:50:02;;;;;;;2.03;0.75;;;18.30;99.90;;;;;;6181770;28;20051;-85
2022/11/01 08:53:05;;;;;;;3.13;0.63;;;18.40;99.90;;;;;;6181315;28;20060;-84
2022/11/01 08:56:08;;;;;;;4.30;0.95;;;18.50;99.90;;;;;;6181523;28;20043;-85
2022/11/01 08:59:10;;;;;;;1.70;0.63;;;18.60;99.90;;;;;;6181743;28;20053;-86
2022/11/01 09:02:12;;;;;;;0.77;0.63;;;18.80;99.90;;;;;;6182029;28;20046;-85
2022/11/01 09:05:13;;;;;;;1.92;0.50;;;18.80;99.90;;;;;;6184965;28;20047;-84
2022/11/01 09:08:15;;;;;;;1.50;0.60;;;18.90;99.90;;;;;;6182265;28;20047;-86
2022/11/01 09:11:18;;;;;;;3.72;0.40;;;19.00;99.90;;;;;;6190983;28;20413;-84
2022/11/01 09:14:22;;;;;;;8.25;5.50;;;19.10;99.90;;;;;;6203374;28;20054;-86
2022/11/01 09:17:24;;;;;;;2.38;1.08;;;19.20;99.90;;;;;;6213742;28;20061;-84
2022/11/01 09:20:27;;;;;;;9.15;0.90;;;19.30;99.90;;;;;;6228017;28;20035;-85
2022/11/01 09:23:28;;;;;;;1.40;0.55;;;19.50;99.90;;;;;;6216661;28;20058;-86
2022/11/01 09:26:31;;;;;;;3.42;1.23;;;19.60;99.90;;;;;;6208208;28;20058;-86
2022/11/01 09:29:33;;;;;;;3.05;0.60;;;19.80;99.90;;;;;;6205823;28;20042;-88
2022/11/01 09:32:35;;;;;;;3.50;1.02;;;20.00;99.90;;;;;;6206441;28;20047;-86
2022/11/01 09:35:37;;;;;;;1.73;0.43;;;20.00;99.90;;;;;;6207761;28;20053;-86
2022/11/01 09:38:39;;;;;;;1.02;0.50;;;20.00;99.90;;;;;;6207371;28;20570;-87
2022/11/01 09:41:46;;;;;;;2.55;0.98;;;20.00;99.90;;;;;;6198146;28;20050;-85
2022/11/01 09:44:51;;;;;;;2.63;0.75;;;20.10;99.90;;;;;;6156613;28;20544;-86
2022/11/01 09:47:55;;;;;;;1.58;0.55;;;20.30;99.90;;;;;;6156188;28;20070;-84
2022/11/01 09:50:58;;;;;;;4.15;0.70;;;20.50;99.90;;;;;;6161558;28;20089;-85
2022/11/01 09:54:03;;;;;;;5.45;0.70;;;20.50;99.90;;;;;;6184507;28;20039;-85
2022/11/01 09:57:17;;;;;;;6.60;0.63;;;20.40;99.90;;;;;;6204679;28;20069;-85
2022/11/01 10:00:20;;;;;;;9.63;0.90;;;20.20;99.90;;;;;;6203677;28;20046;-84
2022/11/01 10:03:33;;;;;;;5.05;2.25;;;20.00;99.90;;;;;;6203871;28;20053;-85
2022/11/01 10:06:41;;;;;;;3.22;0.85;;;19.80;99.90;;;;;;6203764;28;20054;-86
2022/11/01 10:09:51;;;;;;;2.65;0.85;;;19.70;99.90;;;;;;6199425;28;20051;-85
2022/11/01 10:13:08;;;;;;;4.57;0.70;;;19.80;99.90;;;;;;6194645;28;20096;-84
2022/11/01 10:16:15;;;;;;;2.35;0.52;;;19.80;99.90;;;;;;6202984;28;20052;-84
2022/11/01 10:19:20;;;;;;;3.07;0.53;;;19.90;99.90;;;;;;6203318;28;20046;-85
2022/11/01 10:22:29;;;;;;;3.88;0.60;;;20.10;99.90;;;;;;6202822;28;20054;-86
2022/11/01 10:25:33;;;;;;;6.13;1.42;;;20.40;99.90;;;;;;6202700;28;20050;-85
2022/11/01 10:28:46;;;;;;;2.63;0.57;;;20.70;99.90;;;;;;6202343;28;20046;-85
2022/11/01 10:31:50;;;;;;;5.20;0.60;;;20.90;99.40;;;;;;6201368;28;20065;-86
2022/11/01 10:34:54;;;;;;;6.03;1.15;;;21.00;98.70;;;;;;6202627;28;20411;-86
2022/11/01 10:38:02;;;;;;;4.03;0.60;;;21.10;98.10;;;;;;6203291;28;20054;-86
2022/11/01 10:41:11;;;;;;;;;;;21.00;97.50;;;;;;6192017;28;20046;-85
2022/11/01 10:44:17;;;;;;;0.68;0.28;;;21.10;97.60;;;;;;6182430;28;19930;-85
2022/11/01 10:47:19;;;;;;;7.38;1.67;;;21.00;96.90;;;;;;6178366;28;20039;-86
2022/11/01 10:50:23;;;;;;;5.55;0.65;;;20.90;96.70;;;;;;6178782;28;20562;-85
2022/11/01 10:53:27;;;;;;;3.60;0.43;;;20.90;96.40;;;;;;6179678;28;20054;-85
2022/11/01 10:56:34;;;;;;;6.22;1.23;;;20.70;95.40;;;;;;6180834;28;20092;-87
2022/11/01 10:59:42;;;;;;;3.13;0.22;;;20.50;94.80;;;;;;6178345;28;20050;-85
2022/11/01 11:02:48;;;;;;;2.67;0.30;;;20.40;95.00;;;;;;6178468;28;20504;-84
2022/11/01 11:05:51;;;;;;;5.57;0.40;;;20.60;94.50;;;;;;6177951;28;20046;-84
2022/11/01 11:08:55;;;;;;;3.97;0.50;;;21.00;94.30;;;;;;6178678;28;20043;-85
2022/11/01 11:12:05;;;;;;;8.60;1.13;;;21.20;93.20;;;;;;6187787;28;20050;-87
2022/11/01 11:15:18;;;;;;;2.35;0.52;;;21.40;92.70;;;;;;6203534;28;20054;-86
2022/11/01 11:18:25;;;;;;;5.35;0.90;;;21.50;92.60;;;;;;6204281;28;20530;-86
2022/11/01 11:21:35;;;;;;;3.53;0.30;;;21.80;92.30;;;;;;6202094;28;20054;-85
2022/11/01 11:24:39;;;;;;;4.03;0.52;;;22.00;91.50;;;;;;6203259;28;20060;-85
2022/11/01 11:27:46;;;;;;;1.50;0.50;;;22.00;90.60;;;;;;6211968;28;20125;-86
2022/11/01 11:31:01;;;;;;;7.27;0.80;;;22.10;90.10;;;;;;6211029;28;20050;-85
2022/11/01 11:34:16;;;;;;;4.00;0.40;;;21.90;89.10;;;;;;6209921;28;20313;-84
2022/11/01 11:37:21;;;;;;;6.25;0.60;;;22.00;87.60;;;;;;6209773;28;20050;-85
2022/11/01 11:40:25;;;;;;;1.88;0.25;;;22.00;86.70;;;;;;6207074;28;20042;-84
2022/11/01 11:43:32;;;;;;;1.23;0.20;;;22.20;86.60;;;;;;6205831;28;20133;-84
2022/11/01 11:46:35;;;;;;;1.27;0.28;;;22.50;86.10;;;;;;6204387;28;20062;-84
2022/11/01 11:49:38;;;;;;;1.95;0.30;;;22.80;84.70;;;;;;6202837;28;20425;-84
2022/11/01 11:52:41;;;;;;;2.15;0.40;;;23.00;83.10;;;;;;6198160;28;20428;-84
2022/11/01 11:55:45;;;;;;;3.58;0.60;;;23.10;81.90;;;;;;6178662;28;20047;-84
2022/11/01 11:58:50;;;;;;;2.80;0.50;;;23.10;80.00;;;;;;6177953;28;20058;-85
2022/11/01 12:01:58;;;;;;;4.47;0.65;;;23.20;80.30;;;;;;6177493;28;20141;-84
2022/11/01 12:05:02;;;;;;;;;;;23.20;78.40;;;;;;6195411;28;20046;-85
2022/11/01 12:08:05;;;;;;;2.58;0.60;;;22.80;78.90;;;;;;6204671;28;19937;-85
2022/11/01 12:11:06;;;;;;;3.47;0.40;;;22.70;77.90;;;;;;6195317;28;20503;-84
2022/11/01 12:14:25;;;;;;;3.72;0.40;;;22.40;77.00;;;;;;6195922;28;20053;-84
2022/11/01 12:17:31;;;;;;;1.50;0.40;;;22.00;77.20;;;;;;6200395;28;20073;-84
2022/11/01 12:20:38;;;;;;;3.58;0.73;;;21.60;77.00;;;;;;6201892;28;20125;-85
2022/11/01 12:23:41;;;;;;;4.05;0.30;;;21.40;77.80;;;;;;6203263;28;20200;-85
2022/11/01 12:26:44;;;;;;;6.40;0.55;;;21.00;78.10;;;;;;6208211;28;20088;-86
2022/11/01 12:29:51;;;;;;;3.75;0.55;;;20.80;78.60;;;;;;6207879;28;20046;-86
2022/11/01 12:32:56;;;;;;;3.80;0.57;;;20.60;78.60;;;;;;6209521;28;20503;-84
2022/11/01 12:35:58;;;;;;;5.70;0.80;;;20.50;79.10;;;;;;6206837;28;20054;-86
2022/11/01 12:39:07;;;;;;;5.22;0.77;;;20.40;79.30;;;;;;6206983;28;20499;-85
2022/11/01 12:42:12;;;;;;;2.40;0.73;;;20.30;80.00;;;;;;6195278;28;20042;-85
2022/11/01 12:45:24;;;;;;;8.82;1.00;;;20.50;81.30;;;;;;6205029;28;20053;-86
2022/11/01 12:48:32;;;;;;;4.80;1.45;;;20.80;81.30;;;;;;6206467;28;20534;-85
2022/11/01 12:51:42;;;;;;;6.88;1.40;;;21.10;79.80;;;;;;6207814;28;20052;-85
2022/11/01 12:54:51;;;;;;;5.05;1.80;;;21.40;79.30;;;;;;6196753;28;20046;-84
2022/11/01 12:57:54;;;;;;;4.90;0.98;;;21.60;78.60;;;;;;6175852;28;20058;-85
2022/11/01 13:01:08;;;;;;;2.90;0.50;;;21.60;78.40;;;;;;6180411;28;20081;-85
2022/11/01 13:04:20;;;;;;;6.03;0.43;;;21.50;78.00;;;;;;6156717;28;20058;-86
2022/11/01 13:07:31;;;;;;;3.25;0.50;;;21.60;78.40;;;;;;6158772;28;20513;-86
2022/11/01 13:10:35;;;;;;;3.90;0.70;;;22.00;78.50;;;;;;6178822;28;20089;-85
2022/11/01 13:13:43;;;;;;;2.25;0.50;;;22.10;78.00;;;;;;6200137;28;20046;-85
2022/11/01 13:16:48;;;;;;;;;;;22.50;77.50;;;;;;6207832;28;20046;-85
2022/11/01 13:20:04;;;;;;;4.85;0.40;;;23.10;77.90;;;;;;6204566;28;19925;-86
2022/11/01 13:23:14;;;;;;;5.28;0.57;;;23.60;76.10;;;;;;6204066;28;20046;-86
2022/11/01 13:26:22;;;;;;;6.93;1.75;;;23.90;73.90;;;;;;6204758;28;20053;-85
2022/11/01 13:29:34;;;;;;;3.85;0.60;;;24.00;73.30;;;;;;6205793;28;20053;-87
2022/11/01 13:32:43;;;;;;;3.80;1.30;;;24.00;72.40;;;;;;6204245;28;20057;-85
2022/11/01 13:35:54;;;;;;;3.47;0.50;;;24.00;72.30;;;;;;6205254;28;20069;-85
2022/11/01 13:39:01;;;;;;;5.57;0.63;;;24.00;72.00;;;;;;6206321;28;20487;-85
2022/11/01 13:42:08;;;;;;;3.05;0.60;;;23.50;72.50;;;;;;6194822;28;20073;-84
2022/11/01 13:45:32;;;;;;;5.95;1.02;;;23.20;73.10;;;;;;6204417;28;20046;-86
2022/11/01 13:48:47;;;;;;;8.68;1.30;;;23.00;73.00;;;;;;6199862;28;20065;-86
2022/11/01 13:51:55;;;;;;;15.57;5.00;;;23.10;72.60;;;;;;6178898;28;20058;-86
2022/11/01 13:55:06;;;;;;;7.80;1.35;;;23.30;72.30;;;;;;6177593;28;20121;-85
2022/11/01 13:58:12;;;;;;;7.57;1.77;;;23.50;72.30;;;;;;6178202;28;20051;-84
2022/11/01 14:01:34;;;;;;;38.88;12.98;;;23.70;71.30;;;;;;6178757;28;20066;-84
2022/11/01 14:04:38;;;;;;;6.75;1.02;;;23.90;71.00;;;;;;6178283;28;20050;-86
2022/11/01 14:08:15;;;;;;;9.15;2.95;;;24.20;70.30;;;;;;6178138;28;20128;-84
2022/11/01 14:11:45;;;;;;;2.83;0.57;;;24.00;70.20;;;;;;6186392;28;20050;-85
2022/11/01 14:14:53;;;;;;;7.82;0.77;;;24.00;69.80;;;;;;6156662;28;20054;-85
2022/11/01 14:18:06;;;;;;;1.77;0.50;;;24.00;69.70;;;;;;6154254;28;20416;-85
2022/11/01 14:21:27;;;;;;;5.22;0.50;;;24.00;69.30;;;;;;6154103;28;20117;-85
2022/11/01 14:24:30;;;;;;;4.30;0.60;;;24.00;68.70;;;;;;6159313;28;20038;-84
2022/11/01 14:27:35;;;;;;;2.85;0.38;;;24.20;68.70;;;;;;6160906;28;20054;-87
2022/11/01 14:30:41;;;;;;;4.75;0.65;;;24.30;68.30;;;;;;6160033;28;20061;-87
2022/11/01 14:33:44;;;;;;;5.35;0.50;;;24.40;68.60;;;;;;6159547;28;20055;-86
2022/11/01 14:36:49;;;;;;;1.48;0.40;;;24.60;68.00;;;;;;6158390;28;20051;-86
2022/11/01 14:40:00;;;;;;;2.83;0.65;;;24.70;67.60;;;;;;6163060;28;20105;-85
2022/11/01 14:43:10;;;;;;;3.33;0.60;;;24.80;67.90;;;;;;6197144;28;20046;-86
2022/11/01 14:46:16;;;;;;;4.03;0.80;;;25.10;67.50;;;;;;6205770;28;20046;-86
2022/11/01 14:49:29;;;;;;;8.77;0.95;;;25.30;66.50;;;;;;6207333;28;20050;-86
2022/11/01 14:52:39;;;;;;;5.13;0.73;;;25.10;65.30;;;;;;6209474;28;20431;-86
2022/11/01 14:55:42;;;;;;;2.20;0.25;;;24.80;65.80;;;;;;6205594;28;20053;-85
2022/11/01 14:59:16;;;;;;;3.30;0.50;;;24.80;66.50;;;;;;6180717;28;20133;-88
2022/11/01 15:02:19;;;;;;;2.97;0.50;;;24.50;66.70;;;;;;6183519;28;20516;-85
2022/11/01 15:05:20;;;;;;;4.53;0.70;;;24.50;66.80;;;;;;6183395;28;20039;-86
2022/11/01 15:08:25;;;;;;;4.57;0.50;;;24.20;67.00;;;;;;6186862;28;20114;-85
2022/11/01 15:11:31;;;;;;;2.28;0.50;;;24.00;67.50;;;;;;6196090;28;20169;-86
2022/11/01 15:14:47;;;;;;;3.47;0.47;;;23.90;67.80;;;;;;6183529;28;20098;-86
2022/11/01 15:17:55;;;;;;;8.82;2.03;;;23.70;67.90;;;;;;6181831;28;20588;-85
2022/11/01 15:20:59;;;;;;;4.97;0.93;;;23.60;68.20;;;;;;6183710;28;20054;-85
2022/11/01 15:24:06;;;;;;;6.15;1.20;;;23.60;68.30;;;;;;6181041;28;20130;-86
2022/11/01 15:27:40;;;;;;;5.22;1.55;;;23.40;68.40;;;;;;6182201;28;20047;-86
2022/11/01 15:30:51;;;;;;;5.55;0.55;;;23.20;68.70;;;;;;6184665;28;20055;-84
2022/11/01 15:33:56;;;;;;;5.60;0.70;;;22.90;69.00;;;;;;6185572;28;20420;-84
2022/11/01 15:36:58;;;;;;;9.25;0.95;;;22.50;69.70;;;;;;6185742;28;20475;-83
2022/11/01 15:40:00;;;;;;;2.75;1.17;;;22.00;70.70;;;;;;6186333;28;20047;-85
2022/11/01 15:43:03;;;;;;;7.00;0.80;;;21.40;71.90;;;;;;6195018;28;20047;-86
2022/11/01 15:46:08;;;;;;;5.50;0.98;;;20.80;73.20;;;;;;6209018;28;20046;-85
2022/11/01 15:49:16;;;;;;;7.38;0.98;;;20.40;74.40;;;;;;6207641;28;20046;-84
2022/11/01 15:52:22;;;;;;;12.95;1.00;;;20.10;75.40;;;;;;6217330;28;20055;-85
2022/11/01 15:55:28;;;;;;;10.80;0.77;;;19.60;76.50;;;;;;6185374;28;20054;-86
2022/11/01 15:58:36;;;;;;;3.30;0.65;;;19.10;77.50;;;;;;6185235;28;20039;-85
2022/11/01 16:01:39;;;;;;;;;;;18.70;78.60;;;;;;6178646;28;20483;-84
2022/11/01 16:04:45;;;;;;;3.40;0.68;;;18.50;78.60;;;;;;6201168;28;19944;-83
2022/11/01 16:07:48;;;;;;;5.47;0.70;;;18.10;79.40;;;;;;6175110;28;20097;-85